createdAt,value
2023-01-19T00:01:33.114Z,2.91
2023-01-19T00:04:00.976Z,2.77
2023-01-19T00:06:28.955Z,2.60
2023-01-19T00:08:56.777Z,2.47
2023-01-19T00:11:24.613Z,2.48
2023-01-19T00:13:53.612Z,2.51
2023-01-19T00:16:23.288Z,2.53
2023-01-19T00:18:51.972Z,2.64
2023-01-19T00:21:21.663Z,2.65
2023-01-19T00:23:52.654Z,2.65
2023-01-19T00:26:22.158Z,2.63
2023-01-19T00:28:50.668Z,2.60
2023-01-19T00:31:20.729Z,2.62
2023-01-19T00:33:49.377Z,2.61
2023-01-19T00:36:17.241Z,2.54
2023-01-19T00:38:45.061Z,2.48
2023-01-19T00:41:12.857Z,2.45
2023-01-19T00:43:41.049Z,2.42
2023-01-19T00:46:09.188Z,2.32
2023-01-19T00:48:37.017Z,2.29
2023-01-19T00:51:04.963Z,2.25
2023-01-19T00:53:32.877Z,2.19
2023-01-19T00:56:00.697Z,2.07
2023-01-19T00:58:28.542Z,2.01
2023-01-19T01:01:03.590Z,1.99
2023-01-19T01:03:32.523Z,1.94
2023-01-19T01:06:00.301Z,1.97
2023-01-19T01:08:28.351Z,1.99
2023-01-19T01:10:56.635Z,2.06
2023-01-19T01:13:27.243Z,2.14
2023-01-19T01:15:56.140Z,2.16
2023-01-19T01:18:24.947Z,2.11
2023-01-19T01:20:54.574Z,2.06
2023-01-19T01:23:23.874Z,2.06
2023-01-19T01:25:51.725Z,2.08
2023-01-19T01:28:19.533Z,2.08
2023-01-19T01:30:47.595Z,2.09
2023-01-19T01:33:15.402Z,2.12
2023-01-19T01:36:03.353Z,2.17
2023-01-19T01:38:31.095Z,2.23
2023-01-19T01:40:58.775Z,2.22
2023-01-19T01:44:04.698Z,2.15
2023-01-19T01:46:32.426Z,2.20
2023-01-19T01:49:07.297Z,2.22
2023-01-19T01:51:41.070Z,2.22
2023-01-19T01:54:22.147Z,2.19
2023-01-19T01:56:52.258Z,2.22
2023-01-19T01:59:29.837Z,2.33
2023-01-19T02:02:19.157Z,2.50
2023-01-19T02:04:50.543Z,2.57
2023-01-19T02:07:45.245Z,2.58
2023-01-19T02:10:31.806Z,2.49
2023-01-19T02:13:18.693Z,2.32
2023-01-19T02:15:52.721Z,2.24
2023-01-19T02:18:22.526Z,2.32
2023-01-19T02:21:07.608Z,2.36
2023-01-19T02:23:46.686Z,2.37
2023-01-19T02:26:18.792Z,2.37
2023-01-19T02:28:50.574Z,2.35
2023-01-19T02:31:19.423Z,2.32
2023-01-19T02:33:47.784Z,2.30
2023-01-19T02:36:16.982Z,2.34
2023-01-19T02:38:46.047Z,2.43
2023-01-19T02:41:17.234Z,2.46
2023-01-19T02:43:45.964Z,2.59
2023-01-19T02:46:15.620Z,2.71
2023-01-19T02:48:44.028Z,2.68
2023-01-19T02:51:15.510Z,2.58
2023-01-19T02:53:47.579Z,2.47
2023-01-19T02:56:46.651Z,2.28
2023-01-19T02:59:43.156Z,2.13
2023-01-19T03:02:41.261Z,2.10
2023-01-19T03:05:41.810Z,2.03
2023-01-19T03:08:24.744Z,2.03
2023-01-19T03:11:02.603Z,2.08
2023-01-19T03:13:34.507Z,2.13
2023-01-19T03:16:12.044Z,2.16
2023-01-19T03:18:42.727Z,2.21
2023-01-19T03:21:10.869Z,2.21
2023-01-19T03:23:41.770Z,2.20
2023-01-19T03:26:11.560Z,2.22
2023-01-19T03:28:40.809Z,2.29
2023-01-19T03:35:32.118Z,2.38
2023-01-19T03:38:01.183Z,2.36
2023-01-19T03:40:30.674Z,2.37
2023-01-19T03:43:00.669Z,2.43
2023-01-19T03:45:30.898Z,2.47
2023-01-19T03:47:58.925Z,2.39
2023-01-19T03:50:29.610Z,2.37
2023-01-19T03:53:12.427Z,2.35
2023-01-19T03:55:42.449Z,2.28
2023-01-19T03:58:10.794Z,2.25
2023-01-19T04:00:39.007Z,2.27
2023-01-19T04:03:10.905Z,2.29
2023-01-19T04:05:39.561Z,2.23
2023-01-19T04:08:07.633Z,2.19
2023-01-19T04:10:36.799Z,2.17
2023-01-19T04:13:04.869Z,2.17
2023-01-19T04:15:33.289Z,2.12
2023-01-19T04:18:01.259Z,2.13
2023-01-19T04:20:29.550Z,2.18
2023-01-19T04:23:01.534Z,2.19
2023-01-19T04:25:29.689Z,2.24
2023-01-19T04:28:00.130Z,2.21
2023-01-19T04:30:28.167Z,2.19
2023-01-19T04:32:56.292Z,2.19
2023-01-19T04:35:24.124Z,2.19
2023-01-19T04:37:51.884Z,2.26
2023-01-19T04:40:19.705Z,2.31
2023-01-19T04:42:47.547Z,2.38
2023-01-19T04:45:15.420Z,2.51
2023-01-19T04:47:43.239Z,2.55
2023-01-19T04:50:11.730Z,2.53
2023-01-19T04:52:39.658Z,2.51
2023-01-19T04:55:08.174Z,2.52
2023-01-19T04:57:36.094Z,2.54
2023-01-19T05:00:06.681Z,2.53
2023-01-19T05:02:35.063Z,2.52
2023-01-19T05:05:03.633Z,2.53
2023-01-19T05:07:31.475Z,2.50
2023-01-19T05:09:59.315Z,2.51
2023-01-19T05:12:27.544Z,2.50
2023-01-19T05:14:55.283Z,2.48
2023-01-19T05:17:23.270Z,2.39
2023-01-19T05:19:51.390Z,2.40
2023-01-19T05:22:19.164Z,2.43
2023-01-19T05:24:46.919Z,2.51
2023-01-19T05:27:14.730Z,2.62
2023-01-19T05:29:42.479Z,2.73
2023-01-19T05:32:10.360Z,2.81
2023-01-19T05:34:38.250Z,2.73
2023-01-19T05:37:06.070Z,2.71
2023-01-19T05:39:34.133Z,2.74
2023-01-19T05:42:01.925Z,2.78
2023-01-19T05:44:29.746Z,2.87
2023-01-19T05:46:57.725Z,2.91
2023-01-19T05:49:25.726Z,2.95
2023-01-19T05:51:53.563Z,2.95
2023-01-19T05:54:21.607Z,2.96
2023-01-19T05:56:49.346Z,2.92
2023-01-19T05:59:23.923Z,2.78
2023-01-19T06:01:52.509Z,2.57
2023-01-19T06:04:20.437Z,2.41
2023-01-19T06:06:49.182Z,2.30
2023-01-19T06:09:17.788Z,2.25
2023-01-19T06:11:46.199Z,2.26
2023-01-19T06:14:14.020Z,2.33
2023-01-19T06:16:42.061Z,2.32
2023-01-19T06:19:09.931Z,2.22
2023-01-19T06:21:37.768Z,2.14
2023-01-19T06:24:05.960Z,2.16
2023-01-19T06:26:33.715Z,2.15
2023-01-19T06:29:01.571Z,2.14
2023-01-19T06:31:29.369Z,2.18
2023-01-19T06:33:57.246Z,2.21
2023-01-19T06:36:25.241Z,2.14
2023-01-19T06:38:52.988Z,2.05
2023-01-19T06:41:20.801Z,1.99
2023-01-19T06:43:48.673Z,1.98
2023-01-19T06:46:16.531Z,1.99
2023-01-19T06:48:44.309Z,1.97
2023-01-19T06:51:12.286Z,2.04
2023-01-19T06:53:40.059Z,2.08
2023-01-19T06:56:09.685Z,2.13
2023-01-19T06:58:37.925Z,2.19
2023-01-19T07:01:06.895Z,2.23
2023-01-19T07:03:35.954Z,2.22
2023-01-19T07:06:06.607Z,2.16
2023-01-19T07:08:38.256Z,2.10
2023-01-19T07:11:22.167Z,2.10
2023-01-19T07:13:55.757Z,2.14
2023-01-19T07:16:24.232Z,2.17
2023-01-19T07:18:52.099Z,2.12
2023-01-19T07:21:19.896Z,2.11
2023-01-19T07:23:51.696Z,2.14
2023-01-19T07:26:21.551Z,2.20
2023-01-19T07:28:49.739Z,2.25
2023-01-19T07:31:18.242Z,2.21
2023-01-19T07:33:46.828Z,2.20
2023-01-19T07:36:15.017Z,2.15
2023-01-19T07:38:42.836Z,2.10
2023-01-19T07:41:10.706Z,2.10
2023-01-19T07:43:38.594Z,2.03
2023-01-19T07:46:08.182Z,1.97
2023-01-19T07:48:36.286Z,1.87
2023-01-19T07:51:05.824Z,1.88
2023-01-19T07:53:33.980Z,1.88
2023-01-19T07:56:01.811Z,1.86
2023-01-19T07:58:30.032Z,1.86
2023-01-19T08:00:57.974Z,1.83
2023-01-19T08:03:25.845Z,1.78
2023-01-19T08:05:54.383Z,1.83
2023-01-19T08:08:22.127Z,1.79
2023-01-19T08:10:51.007Z,1.73
2023-01-19T08:13:19.112Z,1.73
2023-01-19T08:15:51.613Z,1.76
2023-01-19T08:18:20.207Z,1.89
2023-01-19T08:20:48.247Z,1.94
2023-01-19T08:23:18.048Z,1.95
2023-01-19T08:25:46.183Z,2.05
2023-01-19T08:28:15.795Z,2.16
2023-01-19T08:30:44.926Z,2.33
2023-01-19T08:33:13.746Z,2.40
2023-01-19T08:35:48.858Z,2.51
2023-01-19T08:38:17.128Z,2.66
2023-01-19T08:40:46.317Z,2.83
2023-01-19T08:43:15.967Z,3.03
2023-01-19T08:45:48.782Z,3.21
2023-01-19T08:48:18.105Z,3.36
2023-01-19T08:50:46.783Z,3.50
2023-01-19T08:53:15.473Z,3.63
2023-01-19T08:55:43.346Z,3.73
2023-01-19T08:58:11.114Z,3.83
2023-01-19T14:02:39.950Z,9.68
2023-01-19T14:05:25.566Z,9.60
2023-01-19T14:08:04.100Z,9.56
2023-01-19T14:10:32.898Z,9.38
2023-01-19T14:13:02.804Z,9.11
2023-01-19T14:15:33.415Z,8.83
2023-01-19T14:18:09.637Z,8.59
2023-01-19T14:20:37.769Z,8.26
2023-01-19T14:23:07.249Z,8.10
2023-01-19T14:25:36.523Z,8.05
2023-01-19T14:28:27.734Z,8.04
2023-01-19T14:30:55.528Z,8.03
2023-01-19T14:33:33.623Z,8.04
2023-01-19T14:36:34.863Z,8.04
2023-01-19T14:39:03.640Z,7.88
2023-01-19T14:41:47.987Z,7.75
2023-01-19T14:44:20.973Z,7.59
2023-01-19T14:46:48.965Z,7.39
2023-01-19T14:49:30.283Z,7.11
2023-01-19T14:51:58.681Z,6.77
2023-01-19T14:54:38.471Z,6.50
2023-01-19T14:57:11.584Z,6.32
2023-01-19T14:59:40.173Z,6.17
2023-01-19T15:02:12.494Z,6.04
2023-01-19T15:04:40.765Z,5.85
2023-01-19T15:07:17.183Z,5.70
2023-01-19T15:09:46.691Z,5.52
2023-01-19T15:12:17.534Z,5.29
2023-01-19T15:14:46.820Z,5.08
2023-01-19T15:17:17.061Z,4.86
2023-01-19T15:19:44.833Z,4.66
2023-01-19T15:22:13.566Z,4.49
2023-01-19T15:24:42.087Z,4.34
2023-01-19T15:27:12.183Z,4.24
2023-01-19T15:29:40.506Z,4.13
2023-01-19T15:32:13.198Z,3.99
2023-01-19T15:34:42.389Z,3.83
2023-01-19T15:37:10.245Z,3.66
2023-01-19T15:39:38.151Z,3.43
2023-01-19T15:42:10.763Z,3.22
2023-01-19T15:44:38.536Z,3.07
2023-01-19T15:47:06.279Z,2.97
2023-01-19T15:49:34.096Z,2.86
2023-01-19T15:52:01.896Z,2.84
2023-01-19T15:54:29.769Z,2.78
2023-01-19T15:56:57.762Z,2.64
2023-01-19T15:59:26.179Z,2.54
2023-01-19T16:01:54.246Z,2.53
2023-01-19T16:04:22.175Z,2.51
2023-01-19T16:06:50.252Z,2.51
2023-01-19T16:09:20.025Z,2.50
2023-01-19T16:11:47.837Z,2.48
2023-01-19T16:14:17.496Z,2.47
2023-01-19T16:16:48.739Z,2.45
2023-01-19T16:19:16.573Z,2.42
2023-01-19T16:21:44.284Z,2.39
2023-01-19T16:24:12.101Z,2.33
2023-01-19T16:26:39.876Z,2.25
2023-01-19T16:29:09.795Z,2.11
2023-01-19T16:31:38.675Z,1.93
2023-01-19T16:34:06.992Z,1.75
2023-01-19T16:36:36.630Z,1.58
2023-01-19T16:39:07.072Z,1.45
2023-01-19T16:41:35.619Z,1.39
2023-01-19T16:44:04.008Z,1.40
2023-01-19T16:46:38.211Z,1.45
2023-01-19T16:49:11.318Z,1.51
2023-01-19T16:51:39.446Z,1.55
2023-01-19T16:54:07.790Z,1.57
2023-01-19T16:56:35.660Z,1.53
2023-01-19T16:59:03.633Z,1.47
2023-01-19T17:01:31.727Z,1.38
2023-01-19T17:03:59.907Z,1.27
2023-01-19T17:06:29.553Z,1.19
2023-01-19T17:08:57.796Z,1.14
2023-01-19T17:11:28.451Z,1.17
2023-01-19T17:14:01.711Z,1.23
2023-01-19T17:16:31.263Z,1.28
2023-01-19T17:19:00.562Z,1.30
2023-01-19T17:21:29.268Z,1.28
2023-01-19T17:23:57.967Z,1.18
2023-01-19T17:26:28.444Z,1.08
2023-01-19T17:29:05.311Z,1.01
2023-01-19T17:31:34.128Z,0.97
2023-01-19T17:34:03.422Z,1.03
2023-01-19T17:36:32.652Z,1.08
2023-01-19T17:39:04.566Z,1.10
2023-01-19T17:41:35.158Z,1.10
2023-01-19T17:44:05.221Z,1.07
2023-01-19T17:46:36.418Z,0.98
2023-01-19T17:49:06.301Z,0.94
2023-01-19T17:51:34.542Z,0.91
2023-01-19T17:54:04.083Z,0.81
2023-01-19T17:56:36.909Z,0.62
2023-01-19T17:59:07.610Z,0.40
2023-01-19T18:01:39.763Z,0.32
2023-01-19T18:04:08.123Z,0.39
2023-01-19T18:06:37.113Z,0.46
2023-01-19T18:09:07.371Z,0.49
2023-01-19T18:11:35.486Z,0.48
2023-01-19T18:14:03.633Z,0.45
2023-01-19T18:16:32.567Z,0.41
2023-01-19T18:19:00.875Z,0.33
2023-01-19T18:21:30.393Z,0.35
2023-01-19T18:24:01.179Z,0.41
2023-01-19T18:26:30.469Z,0.47
2023-01-19T18:28:58.959Z,0.53
2023-01-19T18:31:27.375Z,0.58
2023-01-19T18:33:55.247Z,0.61
2023-01-19T18:36:23.390Z,0.62
2023-01-19T18:38:51.569Z,0.64
2023-01-19T18:41:21.295Z,0.63
2023-01-19T18:43:49.605Z,0.56
2023-01-19T18:46:18.968Z,0.45
2023-01-19T18:48:47.010Z,0.38
2023-01-19T18:51:16.144Z,0.34
2023-01-19T18:53:45.382Z,0.36
2023-01-19T18:56:15.801Z,0.38
2023-01-19T18:58:44.794Z,0.38
2023-01-19T19:01:18.449Z,0.35
2023-01-19T19:03:46.320Z,0.33
2023-01-19T19:06:19.031Z,0.35
2023-01-19T19:08:48.668Z,0.39
2023-01-19T19:11:17.347Z,0.38
2023-01-19T19:13:45.767Z,0.36
2023-01-19T19:16:14.691Z,0.31
2023-01-19T19:18:42.915Z,0.24
2023-01-19T19:21:12.103Z,0.24
2023-01-19T19:23:39.948Z,0.24
2023-01-19T19:26:10.059Z,0.24
2023-01-19T19:28:39.422Z,0.25
2023-01-19T19:31:12.775Z,0.24
2023-01-19T19:33:43.391Z,0.22
2023-01-19T19:36:12.486Z,0.23
2023-01-19T19:38:42.752Z,0.26
2023-01-19T19:41:16.773Z,0.33
2023-01-19T19:43:44.544Z,0.40
2023-01-19T19:46:13.917Z,0.46
2023-01-19T19:48:41.995Z,0.51
2023-01-19T19:51:19.092Z,0.50
2023-01-19T19:53:51.030Z,0.42
2023-01-19T19:56:21.674Z,0.40
2023-01-19T19:58:51.706Z,0.44
2023-01-19T20:01:22.581Z,0.50
2023-01-19T20:03:51.454Z,0.55
2023-01-19T20:06:22.798Z,0.58
2023-01-19T20:08:55.119Z,0.57
2023-01-19T20:11:26.860Z,0.51
2023-01-19T20:13:55.026Z,0.47
2023-01-19T20:16:23.884Z,0.46
2023-01-19T20:18:55.639Z,0.47
2023-01-19T20:21:26.058Z,0.47
2023-01-19T20:23:55.578Z,0.51
2023-01-19T20:26:26.673Z,0.51
2023-01-19T20:28:59.766Z,0.48
2023-01-19T20:31:30.459Z,0.49
2023-01-19T20:34:00.454Z,0.49
2023-01-19T20:36:28.888Z,0.44
2023-01-19T20:38:57.624Z,0.32
2023-01-19T20:41:25.989Z,0.34
2023-01-19T20:43:54.306Z,0.40
2023-01-19T20:46:22.085Z,0.42
2023-01-19T20:48:52.993Z,0.41
2023-01-19T20:51:21.019Z,0.44
2023-01-19T20:53:48.996Z,0.45
2023-01-19T20:56:18.432Z,0.47
2023-01-19T20:58:46.307Z,0.48
2023-01-19T21:01:20.518Z,0.46
2023-01-19T21:03:49.049Z,0.43
2023-01-19T21:06:18.169Z,0.44
2023-01-19T21:08:46.465Z,0.39
2023-01-19T21:11:14.396Z,0.34
2023-01-19T21:13:42.348Z,0.33
2023-01-19T21:16:10.336Z,0.29
2023-01-19T21:18:38.330Z,0.29
2023-01-19T21:21:07.099Z,0.22
2023-01-19T21:23:37.103Z,0.19
2023-01-19T21:26:05.090Z,0.16
2023-01-19T21:28:33.321Z,0.13
2023-01-19T21:31:06.823Z,0.19
2023-01-19T21:33:34.884Z,0.26
2023-01-19T21:36:02.679Z,0.29
2023-01-19T21:38:30.470Z,0.33
2023-01-19T21:40:58.751Z,0.35
2023-01-19T21:43:26.692Z,0.38
2023-01-19T21:45:54.671Z,0.37
2023-01-19T21:48:22.660Z,0.37
2023-01-19T21:50:57.631Z,0.39
2023-01-19T21:53:25.420Z,0.39
2023-01-19T21:55:53.381Z,0.43
2023-01-19T21:58:23.389Z,0.44
2023-01-19T22:00:51.303Z,0.46
2023-01-19T22:03:19.153Z,0.50
2023-01-19T22:05:47.106Z,0.54
2023-01-19T22:08:14.970Z,0.59
2023-01-19T22:10:42.731Z,0.62
2023-01-19T22:13:10.526Z,0.62
2023-01-19T22:15:38.387Z,0.62
2023-01-19T22:18:06.185Z,0.55
2023-01-19T22:20:34.019Z,0.45
2023-01-19T22:23:01.795Z,0.42
2023-01-19T22:25:32.635Z,0.32
2023-01-19T22:28:00.479Z,0.25
2023-01-19T22:30:28.322Z,0.14
2023-01-19T22:32:56.239Z,0.06
2023-01-19T22:35:24.030Z,0.01
2023-01-19T22:37:51.844Z,-0.02
2023-01-19T22:40:20.133Z,0.03
2023-01-19T22:42:48.484Z,0.14
2023-01-19T22:45:16.430Z,0.27
2023-01-19T22:47:44.196Z,0.40
2023-01-19T22:50:12.002Z,0.51
2023-01-19T22:52:39.762Z,0.61
2023-01-19T22:55:07.993Z,0.67
2023-01-19T22:57:36.738Z,0.69
2023-01-19T23:00:06.816Z,0.64
2023-01-19T23:02:34.637Z,0.61
2023-01-19T23:05:02.748Z,0.65
2023-01-19T23:07:30.555Z,0.71
2023-01-19T23:09:58.297Z,0.73
2023-01-19T23:12:26.088Z,0.75
2023-01-19T23:14:53.908Z,0.77
2023-01-19T23:17:21.710Z,0.78
2023-01-19T23:19:49.454Z,0.74
2023-01-19T23:22:17.199Z,0.69
2023-01-19T23:24:45.060Z,0.66
2023-01-19T23:27:12.791Z,0.59
2023-01-19T23:29:40.787Z,0.52
2023-01-19T23:32:08.502Z,0.48
2023-01-19T23:34:36.256Z,0.39
2023-01-19T23:37:04.073Z,0.32
2023-01-19T23:39:31.939Z,0.25
2023-01-19T23:41:59.651Z,0.21
2023-01-19T23:44:27.430Z,0.26
2023-01-19T23:46:55.867Z,0.35
2023-01-19T23:49:24.824Z,0.38
2023-01-19T23:51:52.648Z,0.35
2023-01-19T23:54:20.413Z,0.31
2023-01-19T23:56:48.166Z,0.36
2023-01-19T23:59:16.563Z,0.39
